sensor_id;sensor_type;location;lat;lon;timestamp;P1;durP1;ratioP1;P2;durP2;ratioP2
13040;SDS011;6587;42.728;23.288;2023-04-15T00:01:05;8.17;;;5.93;;
13040;SDS011;6587;42.728;23.288;2023-04-15T00:03:32;11.53;;;7.00;;
13040;SDS011;6587;42.728;23.288;2023-04-15T00:05:58;11.27;;;6.73;;
13040;SDS011;6587;42.728;23.288;2023-04-15T00:08:25;13.33;;;7.57;;
13040;SDS011;6587;42.728;23.288;2023-04-15T00:10:52;12.63;;;7.43;;
13040;SDS011;6587;42.728;23.288;2023-04-15T00:13:18;13.00;;;7.30;;
13040;SDS011;6587;42.728;23.288;2023-04-15T00:15:46;13.87;;;8.70;;
13040;SDS011;6587;42.728;23.288;2023-04-15T00:18:13;12.50;;;7.87;;
13040;SDS011;6587;42.728;23.288;2023-04-15T00:20:40;11.77;;;6.73;;
13040;SDS011;6587;42.728;23.288;2023-04-15T00:23:06;12.93;;;7.40;;
13040;SDS011;6587;42.728;23.288;2023-04-15T00:25:33;15.13;;;7.70;;
13040;SDS011;6587;42.728;23.288;2023-04-15T00:27:59;14.43;;;7.77;;
13040;SDS011;6587;42.728;23.288;2023-04-15T00:30:26;14.27;;;7.20;;
13040;SDS011;6587;42.728;23.288;2023-04-15T00:32:54;12.67;;;6.60;;
13040;SDS011;6587;42.728;23.288;2023-04-15T00:35:21;12.50;;;7.57;;
13040;SDS011;6587;42.728;23.288;2023-04-15T00:37:49;11.73;;;6.97;;
13040;SDS011;6587;42.728;23.288;2023-04-15T00:40:16;9.93;;;6.47;;
13040;SDS011;6587;42.728;23.288;2023-04-15T00:42:43;10.10;;;6.83;;
13040;SDS011;6587;42.728;23.288;2023-04-15T00:45:10;11.47;;;6.60;;
13040;SDS011;6587;42.728;23.288;2023-04-15T00:47:37;10.80;;;6.40;;
13040;SDS011;6587;42.728;23.288;2023-04-15T00:50:06;11.83;;;6.90;;
13040;SDS011;6587;42.728;23.288;2023-04-15T00:52:33;9.33;;;6.63;;
13040;SDS011;6587;42.728;23.288;2023-04-15T00:55:00;10.10;;;6.10;;
13040;SDS011;6587;42.728;23.288;2023-04-15T00:57:28;12.47;;;7.07;;
13040;SDS011;6587;42.728;23.288;2023-04-15T00:59:55;9.87;;;6.33;;
13040;SDS011;6587;42.728;23.288;2023-04-15T01:02:22;10.53;;;7.10;;
13040;SDS011;6587;42.728;23.288;2023-04-15T01:04:49;11.80;;;7.23;;
13040;SDS011;6587;42.728;23.288;2023-04-15T01:07:17;11.40;;;6.40;;
13040;SDS011;6587;42.728;23.288;2023-04-15T01:09:44;12.13;;;7.13;;
13040;SDS011;6587;42.728;23.288;2023-04-15T01:12:13;11.23;;;7.10;;
13040;SDS011;6587;42.728;23.288;2023-04-15T01:14:40;11.90;;;7.23;;
13040;SDS011;6587;42.728;23.288;2023-04-15T01:17:07;11.60;;;6.67;;
13040;SDS011;6587;42.728;23.288;2023-04-15T01:19:35;12.20;;;6.80;;
13040;SDS011;6587;42.728;23.288;2023-04-15T01:22:02;11.30;;;7.00;;
13040;SDS011;6587;42.728;23.288;2023-04-15T01:24:31;15.03;;;7.70;;
13040;SDS011;6587;42.728;23.288;2023-04-15T01:26:59;11.63;;;7.03;;
13040;SDS011;6587;42.728;23.288;2023-04-15T01:29:26;13.50;;;7.67;;
13040;SDS011;6587;42.728;23.288;2023-04-15T01:31:53;14.17;;;7.60;;
13040;SDS011;6587;42.728;23.288;2023-04-15T01:34:21;16.73;;;7.73;;
13040;SDS011;6587;42.728;23.288;2023-04-15T01:36:47;15.27;;;9.10;;
13040;SDS011;6587;42.728;23.288;2023-04-15T01:39:14;13.47;;;8.13;;
13040;SDS011;6587;42.728;23.288;2023-04-15T01:41:40;13.90;;;8.17;;
13040;SDS011;6587;42.728;23.288;2023-04-15T01:44:08;12.30;;;7.40;;
13040;SDS011;6587;42.728;23.288;2023-04-15T01:46:36;12.30;;;7.70;;
13040;SDS011;6587;42.728;23.288;2023-04-15T01:49:03;12.10;;;7.73;;
13040;SDS011;6587;42.728;23.288;2023-04-15T01:51:31;12.13;;;7.70;;
13040;SDS011;6587;42.728;23.288;2023-04-15T01:53:57;14.57;;;8.17;;
13040;SDS011;6587;42.728;23.288;2023-04-15T01:56:24;13.13;;;7.80;;
13040;SDS011;6587;42.728;23.288;2023-04-15T01:58:51;12.00;;;7.90;;
13040;SDS011;6587;42.728;23.288;2023-04-15T02:01:19;13.90;;;8.63;;
13040;SDS011;6587;42.728;23.288;2023-04-15T02:03:46;13.87;;;9.20;;
13040;SDS011;6587;42.728;23.288;2023-04-15T02:06:14;15.33;;;8.90;;
13040;SDS011;6587;42.728;23.288;2023-04-15T02:08:40;14.60;;;9.23;;
13040;SDS011;6587;42.728;23.288;2023-04-15T02:11:07;16.53;;;8.93;;
13040;SDS011;6587;42.728;23.288;2023-04-15T02:13:34;14.10;;;8.57;;
13040;SDS011;6587;42.728;23.288;2023-04-15T02:16:01;10.47;;;6.60;;
13040;SDS011;6587;42.728;23.288;2023-04-15T02:18:29;11.77;;;7.33;;
13040;SDS011;6587;42.728;23.288;2023-04-15T02:20:56;13.93;;;7.47;;
13040;SDS011;6587;42.728;23.288;2023-04-15T02:23:22;11.93;;;6.70;;
13040;SDS011;6587;42.728;23.288;2023-04-15T02:25:49;11.33;;;6.60;;
13040;SDS011;6587;42.728;23.288;2023-04-15T02:28:16;13.87;;;6.80;;
13040;SDS011;6587;42.728;23.288;2023-04-15T02:30:46;10.13;;;7.37;;
13040;SDS011;6587;42.728;23.288;2023-04-15T02:33:12;13.07;;;6.93;;
13040;SDS011;6587;42.728;23.288;2023-04-15T02:35:40;14.20;;;8.20;;
13040;SDS011;6587;42.728;23.288;2023-04-15T02:38:09;10.47;;;7.47;;
13040;SDS011;6587;42.728;23.288;2023-04-15T02:40:36;14.00;;;7.33;;
13040;SDS011;6587;42.728;23.288;2023-04-15T02:43:02;16.80;;;7.87;;
13040;SDS011;6587;42.728;23.288;2023-04-15T02:45:32;12.53;;;7.20;;
13040;SDS011;6587;42.728;23.288;2023-04-15T02:48:01;12.03;;;7.00;;
13040;SDS011;6587;42.728;23.288;2023-04-15T02:50:30;13.07;;;7.20;;
13040;SDS011;6587;42.728;23.288;2023-04-15T02:52:58;12.80;;;7.13;;
13040;SDS011;6587;42.728;23.288;2023-04-15T02:55:25;9.83;;;7.00;;
13040;SDS011;6587;42.728;23.288;2023-04-15T02:57:52;11.67;;;6.53;;
13040;SDS011;6587;42.728;23.288;2023-04-15T03:00:18;13.77;;;6.67;;
13040;SDS011;6587;42.728;23.288;2023-04-15T03:02:46;12.13;;;6.73;;
13040;SDS011;6587;42.728;23.288;2023-04-15T03:05:16;13.60;;;7.10;;
13040;SDS011;6587;42.728;23.288;2023-04-15T03:07:48;12.80;;;6.80;;
13040;SDS011;6587;42.728;23.288;2023-04-15T03:10:16;11.03;;;6.67;;
13040;SDS011;6587;42.728;23.288;2023-04-15T03:12:44;11.10;;;6.43;;
13040;SDS011;6587;42.728;23.288;2023-04-15T03:15:16;8.67;;;6.10;;
13040;SDS011;6587;42.728;23.288;2023-04-15T03:17:46;11.30;;;6.67;;
13040;SDS011;6587;42.728;23.288;2023-04-15T03:20:13;10.53;;;6.47;;
13040;SDS011;6587;42.728;23.288;2023-04-15T03:22:41;9.87;;;6.07;;
13040;SDS011;6587;42.728;23.288;2023-04-15T03:25:08;9.57;;;6.00;;
13040;SDS011;6587;42.728;23.288;2023-04-15T03:27:38;9.90;;;5.90;;
13040;SDS011;6587;42.728;23.288;2023-04-15T03:30:05;11.73;;;6.90;;
13040;SDS011;6587;42.728;23.288;2023-04-15T03:32:35;9.53;;;6.27;;
13040;SDS011;6587;42.728;23.288;2023-04-15T03:35:01;13.07;;;7.50;;
13040;SDS011;6587;42.728;23.288;2023-04-15T03:37:28;11.80;;;6.57;;
13040;SDS011;6587;42.728;23.288;2023-04-15T03:39:54;13.07;;;6.40;;
13040;SDS011;6587;42.728;23.288;2023-04-15T03:42:21;9.93;;;6.33;;
13040;SDS011;6587;42.728;23.288;2023-04-15T03:44:49;11.73;;;6.60;;
13040;SDS011;6587;42.728;23.288;2023-04-15T03:47:16;18.67;;;7.90;;
13040;SDS011;6587;42.728;23.288;2023-04-15T03:49:43;16.30;;;7.07;;
13040;SDS011;6587;42.728;23.288;2023-04-15T03:52:09;15.70;;;7.73;;
13040;SDS011;6587;42.728;23.288;2023-04-15T03:54:36;14.63;;;8.03;;
13040;SDS011;6587;42.728;23.288;2023-04-15T03:57:02;12.97;;;8.37;;
13040;SDS011;6587;42.728;23.288;2023-04-15T03:59:29;12.63;;;7.60;;
13040;SDS011;6587;42.728;23.288;2023-04-15T04:01:58;14.07;;;8.50;;
13040;SDS011;6587;42.728;23.288;2023-04-15T04:04:24;18.13;;;11.93;;
13040;SDS011;6587;42.728;23.288;2023-04-15T04:06:51;22.47;;;15.13;;
13040;SDS011;6587;42.728;23.288;2023-04-15T04:09:18;27.43;;;14.73;;
13040;SDS011;6587;42.728;23.288;2023-04-15T04:11:44;21.63;;;13.53;;
13040;SDS011;6587;42.728;23.288;2023-04-15T04:14:12;21.20;;;11.50;;
13040;SDS011;6587;42.728;23.288;2023-04-15T04:16:39;14.97;;;9.67;;
13040;SDS011;6587;42.728;23.288;2023-04-15T04:19:07;14.13;;;8.43;;
13040;SDS011;6587;42.728;23.288;2023-04-15T04:21:33;24.07;;;12.00;;
13040;SDS011;6587;42.728;23.288;2023-04-15T04:24:00;23.20;;;11.30;;
13040;SDS011;6587;42.728;23.288;2023-04-15T04:26:27;15.90;;;10.90;;
13040;SDS011;6587;42.728;23.288;2023-04-15T04:28:53;18.73;;;10.50;;
13040;SDS011;6587;42.728;23.288;2023-04-15T04:31:20;14.10;;;9.13;;
13040;SDS011;6587;42.728;23.288;2023-04-15T04:33:47;18.83;;;9.10;;
13040;SDS011;6587;42.728;23.288;2023-04-15T04:36:15;14.07;;;9.03;;
13040;SDS011;6587;42.728;23.288;2023-04-15T04:38:41;14.00;;;8.40;;
13040;SDS011;6587;42.728;23.288;2023-04-15T04:41:08;15.43;;;8.97;;
13040;SDS011;6587;42.728;23.288;2023-04-15T04:43:34;15.47;;;8.60;;
13040;SDS011;6587;42.728;23.288;2023-04-15T04:46:01;14.83;;;9.63;;
13040;SDS011;6587;42.728;23.288;2023-04-15T04:48:27;22.63;;;11.17;;
13040;SDS011;6587;42.728;23.288;2023-04-15T04:50:54;22.57;;;10.97;;
13040;SDS011;6587;42.728;23.288;2023-04-15T04:53:22;17.23;;;9.60;;
13040;SDS011;6587;42.728;23.288;2023-04-15T04:55:49;14.00;;;8.83;;
13040;SDS011;6587;42.728;23.288;2023-04-15T04:58:15;16.17;;;9.47;;
13040;SDS011;6587;42.728;23.288;2023-04-15T05:00:42;18.13;;;10.17;;
13040;SDS011;6587;42.728;23.288;2023-04-15T05:03:09;12.70;;;8.30;;
13040;SDS011;6587;42.728;23.288;2023-04-15T05:05:35;13.90;;;8.93;;
13040;SDS011;6587;42.728;23.288;2023-04-15T05:08:03;16.20;;;9.30;;
13040;SDS011;6587;42.728;23.288;2023-04-15T05:10:32;16.83;;;9.20;;
13040;SDS011;6587;42.728;23.288;2023-04-15T05:12:58;21.47;;;9.63;;
13040;SDS011;6587;42.728;23.288;2023-04-15T05:15:25;20.07;;;10.57;;
13040;SDS011;6587;42.728;23.288;2023-04-15T05:17:51;18.37;;;10.07;;
13040;SDS011;6587;42.728;23.288;2023-04-15T05:20:18;15.53;;;10.03;;
13040;SDS011;6587;42.728;23.288;2023-04-15T05:22:45;16.07;;;9.93;;
13040;SDS011;6587;42.728;23.288;2023-04-15T05:25:11;13.17;;;8.67;;
13040;SDS011;6587;42.728;23.288;2023-04-15T05:27:39;14.53;;;9.43;;
13040;SDS011;6587;42.728;23.288;2023-04-15T05:30:06;13.47;;;8.17;;
13040;SDS011;6587;42.728;23.288;2023-04-15T05:32:33;12.43;;;7.93;;
13040;SDS011;6587;42.728;23.288;2023-04-15T05:35:00;13.50;;;8.10;;
13040;SDS011;6587;42.728;23.288;2023-04-15T05:37:27;11.17;;;7.47;;
13040;SDS011;6587;42.728;23.288;2023-04-15T05:39:53;10.23;;;7.20;;
13040;SDS011;6587;42.728;23.288;2023-04-15T05:42:20;12.27;;;7.13;;
13040;SDS011;6587;42.728;23.288;2023-04-15T05:44:48;12.20;;;6.77;;
13040;SDS011;6587;42.728;23.288;2023-04-15T05:47:16;10.67;;;6.47;;
13040;SDS011;6587;42.728;23.288;2023-04-15T05:49:42;8.97;;;6.13;;
13040;SDS011;6587;42.728;23.288;2023-04-15T05:52:09;12.80;;;5.93;;
13040;SDS011;6587;42.728;23.288;2023-04-15T05:54:35;9.27;;;6.10;;
13040;SDS011;6587;42.728;23.288;2023-04-15T05:57:02;6.93;;;5.20;;
13040;SDS011;6587;42.728;23.288;2023-04-15T05:59:29;10.40;;;5.80;;
13040;SDS011;6587;42.728;23.288;2023-04-15T06:01:57;11.07;;;5.93;;
13040;SDS011;6587;42.728;23.288;2023-04-15T06:04:23;9.17;;;5.70;;
13040;SDS011;6587;42.728;23.288;2023-04-15T06:06:50;11.03;;;6.43;;
13040;SDS011;6587;42.728;23.288;2023-04-15T06:09:17;10.93;;;6.30;;
13040;SDS011;6587;42.728;23.288;2023-04-15T06:11:43;12.20;;;6.30;;
13040;SDS011;6587;42.728;23.288;2023-04-15T06:14:10;11.37;;;6.47;;
13040;SDS011;6587;42.728;23.288;2023-04-15T06:16:36;14.07;;;6.10;;
13040;SDS011;6587;42.728;23.288;2023-04-15T06:19:04;11.73;;;6.10;;
13040;SDS011;6587;42.728;23.288;2023-04-15T06:21:31;10.63;;;5.90;;
13040;SDS011;6587;42.728;23.288;2023-04-15T06:23:58;9.97;;;6.03;;
13040;SDS011;6587;42.728;23.288;2023-04-15T06:26:25;8.33;;;6.00;;
13040;SDS011;6587;42.728;23.288;2023-04-15T06:28:52;11.77;;;7.03;;
13040;SDS011;6587;42.728;23.288;2023-04-15T06:31:18;12.87;;;7.33;;
13040;SDS011;6587;42.728;23.288;2023-04-15T06:33:45;15.73;;;8.07;;
13040;SDS011;6587;42.728;23.288;2023-04-15T06:36:13;13.73;;;8.03;;
13040;SDS011;6587;42.728;23.288;2023-04-15T06:38:40;15.20;;;7.70;;
13040;SDS011;6587;42.728;23.288;2023-04-15T06:41:06;11.00;;;6.93;;
13040;SDS011;6587;42.728;23.288;2023-04-15T06:43:33;11.33;;;7.77;;
13040;SDS011;6587;42.728;23.288;2023-04-15T06:45:59;12.50;;;7.50;;
13040;SDS011;6587;42.728;23.288;2023-04-15T06:48:26;13.27;;;7.77;;
13040;SDS011;6587;42.728;23.288;2023-04-15T06:50:53;11.73;;;6.83;;
13040;SDS011;6587;42.728;23.288;2023-04-15T06:53:21;15.77;;;7.63;;
13040;SDS011;6587;42.728;23.288;2023-04-15T06:55:48;11.67;;;6.73;;
13040;SDS011;6587;42.728;23.288;2023-04-15T06:58:14;10.73;;;6.93;;
13040;SDS011;6587;42.728;23.288;2023-04-15T07:00:41;9.33;;;6.20;;
13040;SDS011;6587;42.728;23.288;2023-04-15T07:03:08;10.20;;;7.30;;
13040;SDS011;6587;42.728;23.288;2023-04-15T07:05:37;13.37;;;7.63;;
13040;SDS011;6587;42.728;23.288;2023-04-15T07:08:03;12.67;;;7.27;;
13040;SDS011;6587;42.728;23.288;2023-04-15T07:10:32;9.83;;;6.00;;
13040;SDS011;6587;42.728;23.288;2023-04-15T07:12:58;10.47;;;5.70;;
13040;SDS011;6587;42.728;23.288;2023-04-15T07:15:26;9.70;;;5.33;;
13040;SDS011;6587;42.728;23.288;2023-04-15T07:17:52;10.83;;;5.27;;
13040;SDS011;6587;42.728;23.288;2023-04-15T07:20:20;10.60;;;5.03;;
13040;SDS011;6587;42.728;23.288;2023-04-15T07:22:46;7.70;;;4.97;;
13040;SDS011;6587;42.728;23.288;2023-04-15T07:25:13;12.60;;;5.60;;
13040;SDS011;6587;42.728;23.288;2023-04-15T07:27:41;8.27;;;4.90;;
13040;SDS011;6587;42.728;23.288;2023-04-15T07:30:08;8.00;;;4.70;;
13040;SDS011;6587;42.728;23.288;2023-04-15T07:32:35;7.00;;;4.97;;
13040;SDS011;6587;42.728;23.288;2023-04-15T07:35:02;7.30;;;4.70;;
13040;SDS011;6587;42.728;23.288;2023-04-15T07:37:29;10.93;;;4.97;;
13040;SDS011;6587;42.728;23.288;2023-04-15T07:39:55;7.87;;;4.10;;
13040;SDS011;6587;42.728;23.288;2023-04-15T07:42:22;6.43;;;3.80;;
13040;SDS011;6587;42.728;23.288;2023-04-15T07:44:50;7.13;;;3.80;;
13040;SDS011;6587;42.728;23.288;2023-04-15T07:47:16;6.97;;;3.97;;
13040;SDS011;6587;42.728;23.288;2023-04-15T07:49:43;7.93;;;4.27;;
13040;SDS011;6587;42.728;23.288;2023-04-15T07:52:10;7.30;;;3.80;;
13040;SDS011;6587;42.728;23.288;2023-04-15T07:54:37;6.47;;;3.63;;
13040;SDS011;6587;42.728;23.288;2023-04-15T07:57:04;5.23;;;3.40;;
13040;SDS011;6587;42.728;23.288;2023-04-15T07:59:30;6.13;;;3.60;;
13040;SDS011;6587;42.728;23.288;2023-04-15T08:01:59;6.37;;;3.50;;
13040;SDS011;6587;42.728;23.288;2023-04-15T08:04:25;8.20;;;3.10;;
13040;SDS011;6587;42.728;23.288;2023-04-15T08:06:52;3.67;;;2.20;;
13040;SDS011;6587;42.728;23.288;2023-04-15T08:09:18;2.63;;;1.30;;
13040;SDS011;6587;42.728;23.288;2023-04-15T08:11:47;3.27;;;1.43;;
13040;SDS011;6587;42.728;23.288;2023-04-15T08:14:13;4.50;;;1.13;;
13040;SDS011;6587;42.728;23.288;2023-04-15T08:16:40;2.00;;;1.00;;
13040;SDS011;6587;42.728;23.288;2023-04-15T08:19:09;2.90;;;1.40;;
13040;SDS011;6587;42.728;23.288;2023-04-15T08:21:35;5.23;;;2.10;;
13040;SDS011;6587;42.728;23.288;2023-04-15T08:24:02;5.23;;;1.30;;
13040;SDS011;6587;42.728;23.288;2023-04-15T08:26:29;3.40;;;1.20;;
13040;SDS011;6587;42.728;23.288;2023-04-15T08:28:55;3.90;;;1.40;;
13040;SDS011;6587;42.728;23.288;2023-04-15T08:31:22;2.37;;;1.10;;
13040;SDS011;6587;42.728;23.288;2023-04-15T08:33:48;1.80;;;1.37;;
13040;SDS011;6587;42.728;23.288;2023-04-15T08:36:18;2.93;;;1.80;;
13040;SDS011;6587;42.728;23.288;2023-04-15T08:38:45;5.70;;;3.40;;
13040;SDS011;6587;42.728;23.288;2023-04-15T08:41:16;6.10;;;3.33;;
13040;SDS011;6587;42.728;23.288;2023-04-15T08:43:45;3.20;;;1.80;;
13040;SDS011;6587;42.728;23.288;2023-04-15T08:46:13;2.77;;;1.80;;
13040;SDS011;6587;42.728;23.288;2023-04-15T08:48:40;3.50;;;1.90;;
13040;SDS011;6587;42.728;23.288;2023-04-15T08:51:07;3.97;;;1.30;;
13040;SDS011;6587;42.728;23.288;2023-04-15T08:53:36;3.00;;;1.30;;
13040;SDS011;6587;42.728;23.288;2023-04-15T08:56:03;3.07;;;1.37;;
13040;SDS011;6587;42.728;23.288;2023-04-15T08:58:31;3.07;;;1.10;;
13040;SDS011;6587;42.728;23.288;2023-04-15T09:00:57;2.50;;;1.10;;
13040;SDS011;6587;42.728;23.288;2023-04-15T09:03:24;2.43;;;0.80;;
13040;SDS011;6587;42.728;23.288;2023-04-15T09:05:51;1.43;;;0.80;;
13040;SDS011;6587;42.728;23.288;2023-04-15T09:08:18;4.20;;;1.47;;
13040;SDS011;6587;42.728;23.288;2023-04-15T09:10:46;1.60;;;1.23;;
13040;SDS011;6587;42.728;23.288;2023-04-15T09:13:13;2.13;;;1.20;;
13040;SDS011;6587;42.728;23.288;2023-04-15T09:15:40;1.23;;;0.90;;
13040;SDS011;6587;42.728;23.288;2023-04-15T09:18:07;3.60;;;1.40;;
13040;SDS011;6587;42.728;23.288;2023-04-15T09:20:37;4.37;;;2.03;;
13040;SDS011;6587;42.728;23.288;2023-04-15T09:23:10;4.83;;;1.90;;
13040;SDS011;6587;42.728;23.288;2023-04-15T09:25:37;2.10;;;1.10;;
13040;SDS011;6587;42.728;23.288;2023-04-15T09:28:07;1.37;;;1.03;;
13040;SDS011;6587;42.728;23.288;2023-04-15T09:30:34;2.50;;;1.20;;
13040;SDS011;6587;42.728;23.288;2023-04-15T09:33:01;2.80;;;1.70;;
13040;SDS011;6587;42.728;23.288;2023-04-15T09:35:32;3.87;;;1.50;;
13040;SDS011;6587;42.728;23.288;2023-04-15T09:38:02;2.07;;;1.17;;
13040;SDS011;6587;42.728;23.288;2023-04-15T09:40:30;4.27;;;1.20;;
13040;SDS011;6587;42.728;23.288;2023-04-15T09:42:56;2.00;;;0.87;;
13040;SDS011;6587;42.728;23.288;2023-04-15T09:45:24;3.80;;;1.17;;
13040;SDS011;6587;42.728;23.288;2023-04-15T09:47:51;1.17;;;0.90;;
13040;SDS011;6587;42.728;23.288;2023-04-15T09:50:18;1.73;;;1.07;;
13040;SDS011;6587;42.728;23.288;2023-04-15T09:52:45;2.10;;;0.97;;
13040;SDS011;6587;42.728;23.288;2023-04-15T09:55:13;1.73;;;0.80;;
13040;SDS011;6587;42.728;23.288;2023-04-15T09:57:40;0.80;;;0.80;;
13040;SDS011;6587;42.728;23.288;2023-04-15T10:00:08;1.80;;;1.20;;
13040;SDS011;6587;42.728;23.288;2023-04-15T10:02:37;2.27;;;0.77;;
13040;SDS011;6587;42.728;23.288;2023-04-15T10:05:05;3.13;;;1.20;;
13040;SDS011;6587;42.728;23.288;2023-04-15T10:07:32;3.30;;;1.40;;
13040;SDS011;6587;42.728;23.288;2023-04-15T10:09:59;2.50;;;1.00;;
13040;SDS011;6587;42.728;23.288;2023-04-15T10:12:26;1.87;;;0.90;;
13040;SDS011;6587;42.728;23.288;2023-04-15T10:14:55;1.27;;;0.90;;
13040;SDS011;6587;42.728;23.288;2023-04-15T10:17:24;2.00;;;1.10;;
13040;SDS011;6587;42.728;23.288;2023-04-15T10:19:53;2.50;;;1.20;;
13040;SDS011;6587;42.728;23.288;2023-04-15T10:22:20;2.13;;;0.80;;
13040;SDS011;6587;42.728;23.288;2023-04-15T10:24:47;1.33;;;1.23;;
13040;SDS011;6587;42.728;23.288;2023-04-15T10:27:14;3.07;;;1.20;;
13040;SDS011;6587;42.728;23.288;2023-04-15T10:29:42;2.37;;;1.10;;
13040;SDS011;6587;42.728;23.288;2023-04-15T10:32:09;1.37;;;1.20;;
13040;SDS011;6587;42.728;23.288;2023-04-15T10:34:36;1.77;;;1.00;;
13040;SDS011;6587;42.728;23.288;2023-04-15T10:37:04;1.43;;;0.97;;
13040;SDS011;6587;42.728;23.288;2023-04-15T10:39:38;3.23;;;1.60;;
13040;SDS011;6587;42.728;23.288;2023-04-15T10:42:06;2.57;;;1.43;;
13040;SDS011;6587;42.728;23.288;2023-04-15T10:44:32;3.40;;;1.20;;
13040;SDS011;6587;42.728;23.288;2023-04-15T10:46:59;1.17;;;1.00;;
13040;SDS011;6587;42.728;23.288;2023-04-15T10:49:25;3.77;;;1.20;;
13040;SDS011;6587;42.728;23.288;2023-04-15T10:51:56;2.20;;;1.60;;
13040;SDS011;6587;42.728;23.288;2023-04-15T10:54:31;6.70;;;2.30;;
13040;SDS011;6587;42.728;23.288;2023-04-15T10:57:13;1.20;;;1.10;;
13040;SDS011;6587;42.728;23.288;2023-04-15T10:59:59;3.40;;;1.13;;
13040;SDS011;6587;42.728;23.288;2023-04-15T11:02:37;3.07;;;1.57;;
13040;SDS011;6587;42.728;23.288;2023-04-15T11:05:04;3.27;;;1.67;;
13040;SDS011;6587;42.728;23.288;2023-04-15T11:07:34;3.00;;;1.27;;
13040;SDS011;6587;42.728;23.288;2023-04-15T11:10:03;3.10;;;1.80;;
13040;SDS011;6587;42.728;23.288;2023-04-15T11:12:33;3.00;;;1.70;;
13040;SDS011;6587;42.728;23.288;2023-04-15T11:17:41;2.73;;;1.37;;
13040;SDS011;6587;42.728;23.288;2023-04-15T11:20:08;2.90;;;1.70;;
13040;SDS011;6587;42.728;23.288;2023-04-15T11:22:45;2.67;;;1.47;;
13040;SDS011;6587;42.728;23.288;2023-04-15T11:25:22;3.47;;;1.90;;
13040;SDS011;6587;42.728;23.288;2023-04-15T11:27:48;1.40;;;1.20;;
13040;SDS011;6587;42.728;23.288;2023-04-15T11:30:19;2.50;;;1.30;;
13040;SDS011;6587;42.728;23.288;2023-04-15T11:32:46;2.33;;;1.20;;
13040;SDS011;6587;42.728;23.288;2023-04-15T11:35:13;1.70;;;1.30;;
13040;SDS011;6587;42.728;23.288;2023-04-15T11:37:41;2.77;;;1.60;;
13040;SDS011;6587;42.728;23.288;2023-04-15T11:40:08;2.27;;;1.10;;
13040;SDS011;6587;42.728;23.288;2023-04-15T11:42:36;3.10;;;1.37;;
13040;SDS011;6587;42.728;23.288;2023-04-15T11:45:06;1.33;;;1.10;;
13040;SDS011;6587;42.728;23.288;2023-04-15T11:47:33;1.43;;;1.03;;
13040;SDS011;6587;42.728;23.288;2023-04-15T11:50:12;2.57;;;1.30;;
13040;SDS011;6587;42.728;23.288;2023-04-15T11:52:39;2.27;;;1.30;;
13040;SDS011;6587;42.728;23.288;2023-04-15T11:55:06;2.63;;;1.43;;
13040;SDS011;6587;42.728;23.288;2023-04-15T11:57:33;1.40;;;1.10;;
13040;SDS011;6587;42.728;23.288;2023-04-15T12:00:01;2.07;;;1.13;;
13040;SDS011;6587;42.728;23.288;2023-04-15T12:02:31;1.43;;;1.00;;
13040;SDS011;6587;42.728;23.288;2023-04-15T12:05:04;2.37;;;1.27;;
13040;SDS011;6587;42.728;23.288;2023-04-15T12:07:31;3.53;;;1.37;;
13040;SDS011;6587;42.728;23.288;2023-04-15T12:09:58;1.70;;;1.00;;
13040;SDS011;6587;42.728;23.288;2023-04-15T12:12:26;1.23;;;0.93;;
13040;SDS011;6587;42.728;23.288;2023-04-15T12:14:53;4.33;;;1.30;;
13040;SDS011;6587;42.728;23.288;2023-04-15T12:17:23;1.30;;;1.10;;
13040;SDS011;6587;42.728;23.288;2023-04-15T12:19:54;4.00;;;1.40;;
13040;SDS011;6587;42.728;23.288;2023-04-15T12:22:21;2.20;;;1.17;;
13040;SDS011;6587;42.728;23.288;2023-04-15T12:24:53;2.07;;;1.37;;
13040;SDS011;6587;42.728;23.288;2023-04-15T12:27:24;1.93;;;1.20;;
13040;SDS011;6587;42.728;23.288;2023-04-15T12:29:54;1.87;;;1.20;;
13040;SDS011;6587;42.728;23.288;2023-04-15T12:32:30;2.47;;;1.40;;
13040;SDS011;6587;42.728;23.288;2023-04-15T12:35:00;2.77;;;1.13;;
13040;SDS011;6587;42.728;23.288;2023-04-15T12:37:27;1.90;;;1.20;;
13040;SDS011;6587;42.728;23.288;2023-04-15T12:39:53;2.53;;;1.20;;
13040;SDS011;6587;42.728;23.288;2023-04-15T12:42:20;1.57;;;1.30;;
13040;SDS011;6587;42.728;23.288;2023-04-15T12:44:47;2.53;;;1.27;;
13040;SDS011;6587;42.728;23.288;2023-04-15T12:47:13;2.30;;;1.23;;
13040;SDS011;6587;42.728;23.288;2023-04-15T12:49:41;2.90;;;1.27;;
13040;SDS011;6587;42.728;23.288;2023-04-15T12:52:08;2.13;;;1.20;;
13040;SDS011;6587;42.728;23.288;2023-04-15T12:54:35;1.30;;;1.20;;
13040;SDS011;6587;42.728;23.288;2023-04-15T12:57:01;4.97;;;1.63;;
13040;SDS011;6587;42.728;23.288;2023-04-15T12:59:28;2.30;;;1.27;;
13040;SDS011;6587;42.728;23.288;2023-04-15T13:01:54;1.70;;;1.13;;
13040;SDS011;6587;42.728;23.288;2023-04-15T13:04:22;3.67;;;1.53;;
13040;SDS011;6587;42.728;23.288;2023-04-15T13:06:49;2.10;;;1.27;;
13040;SDS011;6587;42.728;23.288;2023-04-15T13:09:16;3.23;;;1.20;;
13040;SDS011;6587;42.728;23.288;2023-04-15T13:11:43;1.37;;;1.20;;
13040;SDS011;6587;42.728;23.288;2023-04-15T13:14:09;1.90;;;1.13;;
13040;SDS011;6587;42.728;23.288;2023-04-15T13:16:37;1.73;;;1.13;;
13040;SDS011;6587;42.728;23.288;2023-04-15T13:19:03;1.10;;;1.00;;
13040;SDS011;6587;42.728;23.288;2023-04-15T13:21:31;1.57;;;1.20;;
13040;SDS011;6587;42.728;23.288;2023-04-15T13:24:00;1.97;;;0.90;;
13040;SDS011;6587;42.728;23.288;2023-04-15T13:26:27;1.47;;;1.00;;
13040;SDS011;6587;42.728;23.288;2023-04-15T13:28:54;2.50;;;1.13;;
13040;SDS011;6587;42.728;23.288;2023-04-15T13:31:20;1.50;;;1.00;;
13040;SDS011;6587;42.728;23.288;2023-04-15T13:33:47;1.10;;;1.00;;
13040;SDS011;6587;42.728;23.288;2023-04-15T13:36:14;2.03;;;1.20;;
13040;SDS011;6587;42.728;23.288;2023-04-15T13:38:40;1.63;;;1.20;;
13040;SDS011;6587;42.728;23.288;2023-04-15T13:41:08;2.13;;;1.10;;
13040;SDS011;6587;42.728;23.288;2023-04-15T13:43:35;1.93;;;1.10;;
13040;SDS011;6587;42.728;23.288;2023-04-15T13:46:01;1.63;;;1.10;;
13040;SDS011;6587;42.728;23.288;2023-04-15T13:48:28;2.93;;;1.30;;
13040;SDS011;6587;42.728;23.288;2023-04-15T13:50:55;2.40;;;1.60;;
13040;SDS011;6587;42.728;23.288;2023-04-15T13:53:21;1.23;;;0.97;;
13040;SDS011;6587;42.728;23.288;2023-04-15T13:55:48;1.43;;;0.80;;
13040;SDS011;6587;42.728;23.288;2023-04-15T13:58:16;2.33;;;1.10;;
13040;SDS011;6587;42.728;23.288;2023-04-15T14:00:43;1.97;;;0.90;;
13040;SDS011;6587;42.728;23.288;2023-04-15T14:03:09;1.27;;;0.90;;
13040;SDS011;6587;42.728;23.288;2023-04-15T14:05:36;2.17;;;1.00;;
13040;SDS011;6587;42.728;23.288;2023-04-15T14:08:03;1.37;;;1.03;;
13040;SDS011;6587;42.728;23.288;2023-04-15T14:10:29;2.90;;;1.20;;
13040;SDS011;6587;42.728;23.288;2023-04-15T14:12:56;0.90;;;0.90;;
13040;SDS011;6587;42.728;23.288;2023-04-15T14:15:24;1.40;;;0.80;;
13040;SDS011;6587;42.728;23.288;2023-04-15T14:17:51;1.23;;;0.80;;
13040;SDS011;6587;42.728;23.288;2023-04-15T14:20:17;1.33;;;0.97;;
13040;SDS011;6587;42.728;23.288;2023-04-15T14:22:44;3.08;;;1.13;;
13040;SDS011;6587;42.728;23.288;2023-04-15T14:25:10;1.93;;;1.10;;
13040;SDS011;6587;42.728;23.288;2023-04-15T14:27:37;1.93;;;0.80;;
13040;SDS011;6587;42.728;23.288;2023-04-15T14:30:04;1.20;;;1.03;;
13040;SDS011;6587;42.728;23.288;2023-04-15T14:32:32;3.20;;;1.43;;
13040;SDS011;6587;42.728;23.288;2023-04-15T14:34:59;1.80;;;0.83;;
13040;SDS011;6587;42.728;23.288;2023-04-15T14:37:26;4.10;;;1.73;;
13040;SDS011;6587;42.728;23.288;2023-04-15T14:39:52;3.17;;;2.13;;
13040;SDS011;6587;42.728;23.288;2023-04-15T14:42:19;2.67;;;1.50;;
13040;SDS011;6587;42.728;23.288;2023-04-15T14:44:45;1.70;;;1.20;;